createdAt,value
2019-02-16T00:01:02.978Z,3.50
2019-02-16T00:03:32.787Z,3.63
2019-02-16T00:06:02.897Z,3.90
2019-02-16T00:08:32.861Z,3.33
2019-02-16T00:11:03.118Z,2.90
2019-02-16T00:13:32.921Z,3.03
2019-02-16T00:16:02.677Z,3.07
2019-02-16T00:18:51.406Z,2.93
2019-02-16T00:21:20.943Z,3.63
2019-02-16T00:23:50.599Z,2.60
2019-02-16T00:26:20.814Z,3.00
2019-02-16T00:28:51.096Z,2.80
2019-02-16T00:31:20.575Z,2.77
2019-02-16T00:33:50.683Z,2.67
2019-02-16T00:36:20.066Z,3.00
2019-02-16T00:38:50.094Z,2.63
2019-02-16T00:41:19.692Z,2.70
2019-02-16T00:43:49.312Z,2.37
2019-02-16T00:46:19.024Z,3.07
2019-02-16T00:48:48.736Z,2.80
2019-02-16T00:51:19.212Z,2.70
2019-02-16T00:53:48.983Z,2.63
2019-02-16T00:56:19.028Z,2.70
2019-02-16T00:58:49.220Z,2.30
2019-02-16T01:01:18.445Z,2.80
2019-02-16T01:03:48.089Z,2.47
2019-02-16T01:06:17.386Z,2.70
2019-02-16T01:08:46.977Z,2.60
2019-02-16T01:11:16.763Z,3.20
2019-02-16T01:13:46.563Z,2.63
2019-02-16T01:16:35.656Z,2.33
2019-02-16T01:19:05.501Z,3.00
2019-02-16T01:21:34.686Z,2.57
2019-02-16T01:24:04.350Z,2.37
2019-02-16T01:26:33.938Z,2.20
2019-02-16T01:29:03.153Z,2.70
2019-02-16T01:31:32.596Z,2.40
2019-02-16T01:34:01.861Z,3.00
2019-02-16T01:36:31.919Z,2.90
2019-02-16T01:39:02.679Z,3.27
2019-02-16T01:41:31.915Z,2.77
2019-02-16T01:44:01.744Z,2.43
2019-02-16T01:46:31.252Z,2.93
2019-02-16T01:49:00.945Z,2.43
2019-02-16T01:51:32.151Z,3.07
2019-02-16T01:54:02.540Z,2.83
2019-02-16T01:56:32.547Z,2.80
2019-02-16T01:59:02.197Z,3.00
2019-02-16T02:01:31.562Z,3.10
2019-02-16T02:04:01.381Z,2.93
2019-02-16T02:06:30.996Z,2.90
2019-02-16T02:09:00.381Z,2.90
2019-02-16T02:11:30.156Z,3.23
2019-02-16T02:14:18.723Z,3.70
2019-02-16T02:16:48.396Z,3.30
2019-02-16T02:19:18.058Z,2.83
2019-02-16T02:21:47.689Z,3.43
2019-02-16T02:24:16.939Z,3.57
2019-02-16T02:26:46.633Z,3.33
2019-02-16T02:29:16.329Z,2.93
2019-02-16T02:31:45.925Z,3.43
2019-02-16T02:34:15.627Z,3.10
2019-02-16T02:36:45.397Z,3.83
2019-02-16T02:39:15.081Z,3.40
2019-02-16T02:41:44.506Z,3.00
2019-02-16T02:44:14.954Z,3.40
2019-02-16T02:46:44.863Z,3.90
2019-02-16T02:49:33.330Z,3.63
2019-02-16T02:52:03.287Z,3.70
2019-02-16T02:54:33.389Z,3.40
2019-02-16T02:57:02.694Z,4.07
2019-02-16T02:59:32.237Z,3.63
2019-02-16T03:02:02.094Z,3.70
2019-02-16T03:04:31.275Z,2.97
2019-02-16T03:07:01.245Z,4.00
2019-02-16T03:09:30.890Z,3.00
2019-02-16T03:12:00.550Z,3.20
2019-02-16T03:14:30.179Z,3.27
2019-02-16T03:16:59.472Z,3.27
2019-02-16T03:19:29.070Z,3.50
2019-02-16T03:22:02.933Z,3.20
2019-02-16T03:24:30.898Z,3.00
2019-02-16T03:27:14.344Z,3.03
2019-02-16T03:30:20.915Z,2.90
2019-02-16T03:33:33.920Z,3.60
2019-02-16T03:36:40.190Z,3.03
2019-02-16T03:39:18.694Z,3.30
2019-02-16T03:41:49.062Z,2.80
2019-02-16T03:44:19.093Z,3.00
2019-02-16T03:47:07.532Z,3.27
2019-02-16T03:49:37.167Z,3.20
2019-02-16T03:52:13.761Z,3.03
2019-02-16T03:54:38.242Z,2.57
2019-02-16T03:57:07.965Z,2.53
2019-02-16T03:59:37.154Z,3.00
2019-02-16T04:02:06.821Z,2.80
2019-02-16T04:04:36.496Z,3.03
2019-02-16T04:07:05.805Z,3.37
2019-02-16T04:09:35.357Z,2.80
2019-02-16T04:12:04.993Z,3.37
2019-02-16T04:14:35.013Z,2.90
2019-02-16T04:17:04.710Z,2.87
2019-02-16T04:19:34.923Z,3.43
2019-02-16T04:22:05.014Z,3.00
2019-02-16T04:24:34.287Z,2.50
2019-02-16T04:27:04.003Z,2.77
2019-02-16T04:29:52.721Z,2.40
2019-02-16T04:32:22.321Z,3.37
2019-02-16T04:34:52.146Z,3.30
2019-02-16T04:37:21.719Z,3.30
2019-02-16T04:39:51.326Z,3.30
2019-02-16T04:42:20.956Z,3.07
2019-02-16T04:44:51.035Z,3.03
2019-02-16T04:47:20.974Z,3.67
2019-02-16T04:50:09.533Z,3.53
2019-02-16T04:52:39.104Z,3.20
2019-02-16T04:55:09.150Z,2.63
2019-02-16T04:57:39.542Z,3.03
2019-02-16T05:00:09.576Z,3.73
2019-02-16T05:02:39.181Z,3.07
2019-02-16T05:05:08.730Z,3.00
2019-02-16T05:07:37.986Z,2.57
2019-02-16T05:10:07.437Z,3.23
2019-02-16T05:12:37.530Z,4.00
2019-02-16T05:15:07.825Z,2.73
2019-02-16T05:17:37.762Z,2.70
2019-02-16T05:20:07.427Z,2.70
2019-02-16T05:22:44.318Z,2.87
2019-02-16T05:25:08.033Z,3.10
2019-02-16T05:27:38.335Z,3.30
2019-02-16T05:30:07.971Z,3.00
2019-02-16T05:32:37.994Z,2.80
2019-02-16T05:35:07.230Z,2.93
2019-02-16T05:37:36.477Z,2.50
2019-02-16T05:40:06.761Z,2.93
2019-02-16T05:42:37.029Z,2.90
2019-02-16T05:45:06.482Z,2.20
2019-02-16T05:47:36.468Z,2.60
2019-02-16T05:50:05.701Z,3.30
2019-02-16T05:52:35.280Z,2.83
2019-02-16T05:55:05.348Z,2.97
2019-02-16T05:57:36.028Z,2.70
2019-02-16T06:00:06.002Z,2.80
2019-02-16T06:02:36.021Z,3.00
2019-02-16T06:05:05.471Z,3.10
2019-02-16T06:07:35.420Z,2.50
2019-02-16T06:10:05.541Z,3.30
2019-02-16T06:12:34.944Z,3.53
2019-02-16T06:15:04.596Z,2.57
2019-02-16T06:17:34.030Z,3.10
2019-02-16T06:20:03.627Z,3.10
2019-02-16T06:22:33.378Z,3.10
2019-02-16T06:25:03.329Z,3.13
2019-02-16T06:27:32.612Z,2.87
2019-02-16T06:30:02.339Z,3.30
2019-02-16T06:32:32.038Z,2.97
2019-02-16T06:35:15.973Z,3.00
2019-02-16T06:37:45.503Z,2.83
2019-02-16T06:40:14.871Z,3.40
2019-02-16T06:42:44.504Z,2.57
2019-02-16T06:45:14.215Z,3.03
2019-02-16T06:47:44.154Z,3.07
2019-02-16T06:50:13.811Z,3.13
2019-02-16T06:52:43.462Z,2.70
2019-02-16T06:55:13.513Z,3.33
2019-02-16T06:57:46.443Z,2.57
2019-02-16T07:00:18.130Z,2.60
2019-02-16T07:02:47.674Z,3.20
2019-02-16T07:05:17.350Z,2.33
2019-02-16T07:08:06.102Z,3.37
2019-02-16T07:10:35.474Z,2.90
2019-02-16T07:13:05.142Z,3.10
2019-02-16T07:15:35.214Z,3.10
2019-02-16T07:18:27.310Z,2.53
2019-02-16T07:20:57.240Z,2.60
2019-02-16T07:23:27.704Z,3.20
2019-02-16T07:25:57.739Z,3.50
2019-02-16T07:28:26.976Z,3.07
2019-02-16T07:30:56.232Z,4.13
2019-02-16T07:33:25.890Z,3.73
2019-02-16T07:35:55.718Z,3.80
2019-02-16T07:38:25.375Z,3.20
2019-02-16T07:40:55.357Z,3.30
2019-02-16T07:43:56.094Z,3.40
2019-02-16T07:46:38.378Z,2.90
2019-02-16T07:49:24.621Z,3.30
2019-02-16T07:52:22.277Z,3.60
2019-02-16T07:55:14.124Z,3.20
2019-02-16T07:58:03.109Z,3.33
2019-02-16T08:00:38.577Z,3.80
2019-02-16T08:03:26.923Z,4.10
2019-02-16T08:06:15.843Z,3.77
2019-02-16T08:09:04.006Z,3.67
2019-02-16T08:11:40.383Z,3.07
2019-02-16T08:14:34.759Z,4.13
2019-02-16T08:17:22.949Z,4.37
2019-02-16T08:20:03.835Z,4.73
2019-02-16T08:23:26.525Z,4.17
2019-02-16T08:26:13.390Z,3.23
2019-02-16T08:28:53.931Z,3.90
2019-02-16T08:31:31.860Z,3.73
2019-02-16T08:34:23.390Z,3.93
2019-02-16T08:37:01.881Z,3.70
2019-02-16T08:39:49.696Z,3.93
2019-02-16T08:42:30.486Z,3.07
2019-02-16T08:45:09.915Z,3.43
2019-02-16T08:47:57.000Z,4.60
2019-02-16T08:50:44.171Z,3.43
2019-02-16T08:53:49.911Z,4.90
2019-02-16T08:56:38.975Z,5.17
2019-02-16T08:59:36.918Z,4.17
2019-02-16T09:02:24.708Z,5.13
2019-02-16T09:05:09.506Z,5.27
2019-02-16T09:08:02.852Z,4.30
2019-02-16T09:10:50.383Z,4.00
2019-02-16T09:13:28.718Z,5.20
2019-02-16T09:16:03.804Z,5.27
2019-02-16T09:18:52.734Z,4.90
2019-02-16T09:21:34.455Z,5.80
2019-02-16T09:24:22.602Z,5.37
2019-02-16T09:27:10.701Z,4.70
2019-02-16T09:30:05.294Z,5.43
2019-02-16T09:33:09.391Z,4.90
2019-02-16T09:36:06.521Z,5.20
2019-02-16T09:39:04.188Z,5.50
2019-02-16T09:41:52.791Z,5.17
2019-02-16T09:44:44.011Z,5.47
2019-02-16T09:47:47.291Z,5.57
2019-02-16T09:50:34.659Z,4.93
2019-02-16T09:53:09.495Z,5.60
2019-02-16T09:56:10.659Z,5.80
2019-02-16T09:58:52.241Z,5.60
2019-02-16T10:01:46.458Z,6.40
2019-02-16T10:04:28.203Z,5.90
2019-02-16T10:07:22.173Z,6.00
2019-02-16T10:09:57.085Z,6.40
2019-02-16T10:12:47.978Z,6.10
2019-02-16T10:15:39.206Z,6.77
2019-02-16T10:18:33.610Z,6.30
2019-02-16T10:21:22.131Z,6.37
2019-02-16T10:24:18.203Z,6.93
2019-02-16T10:27:31.926Z,7.03
2019-02-16T10:30:39.340Z,7.70
2019-02-16T10:33:34.194Z,8.13
2019-02-16T10:36:09.972Z,7.67
2019-02-16T10:39:13.899Z,8.13
2019-02-16T10:42:12.126Z,8.03
2019-02-16T10:45:00.494Z,8.53
2019-02-16T10:47:46.419Z,8.87
2019-02-16T10:50:33.562Z,7.30
2019-02-16T10:53:28.320Z,7.90
2019-02-16T10:56:16.855Z,7.70
2019-02-16T10:59:03.694Z,8.03
2019-02-16T11:01:59.679Z,8.47
2019-02-16T11:04:48.796Z,8.10
2019-02-16T11:07:43.391Z,8.33
2019-02-16T11:10:31.984Z,8.63
2019-02-16T11:13:13.783Z,7.90
2019-02-16T11:16:01.266Z,9.20
2019-02-16T11:18:52.817Z,9.40
2019-02-16T11:21:44.563Z,8.70
2019-02-16T11:24:36.425Z,8.87
2019-02-16T11:27:23.316Z,9.37
2019-02-16T11:30:21.150Z,9.80
2019-02-16T11:32:58.811Z,10.27
2019-02-16T11:35:56.569Z,9.23
2019-02-16T11:38:45.711Z,10.10
2019-02-16T11:41:42.967Z,9.43
2019-02-16T11:44:43.557Z,10.93
2019-02-16T11:47:30.298Z,11.00
2019-02-16T11:50:17.908Z,10.10
2019-02-16T11:53:05.131Z,10.03
2019-02-16T11:55:59.535Z,10.63
2019-02-16T11:59:02.658Z,10.63
2019-02-16T12:01:44.098Z,9.73
2019-02-16T12:04:21.416Z,10.00
2019-02-16T12:07:06.614Z,10.83
2019-02-16T12:09:58.478Z,9.30
2019-02-16T12:12:39.251Z,9.60
2019-02-16T12:15:36.640Z,9.97
2019-02-16T12:18:25.284Z,9.90
2019-02-16T12:21:12.262Z,9.20
2019-02-16T12:24:01.174Z,9.20
2019-02-16T12:26:48.663Z,9.30
2019-02-16T12:29:37.469Z,10.23
2019-02-16T12:32:34.962Z,10.00
2019-02-16T12:35:20.748Z,9.77
2019-02-16T12:37:58.033Z,10.30
2019-02-16T12:40:45.221Z,9.90
2019-02-16T12:43:24.706Z,10.70
2019-02-16T12:46:13.791Z,10.03
2019-02-16T12:48:52.552Z,9.57
2019-02-16T12:51:41.122Z,11.00
2019-02-16T12:54:20.223Z,11.33
2019-02-16T12:56:57.052Z,10.60
2019-02-16T12:59:51.026Z,11.90
2019-02-16T13:02:42.154Z,11.07
2019-02-16T13:05:21.210Z,10.70
2019-02-16T13:08:13.397Z,11.50
2019-02-16T13:11:20.389Z,11.47
2019-02-16T13:14:07.688Z,11.77
2019-02-16T13:16:55.327Z,10.40
2019-02-16T13:19:56.162Z,11.40
2019-02-16T13:22:47.779Z,11.83
2019-02-16T13:25:35.725Z,10.93
2019-02-16T13:28:19.137Z,11.90
2019-02-16T13:31:01.300Z,12.20
2019-02-16T13:33:43.059Z,11.43
2019-02-16T13:36:37.836Z,10.90
2019-02-16T13:39:38.313Z,11.10
2019-02-16T13:42:16.887Z,11.10
2019-02-16T13:44:54.489Z,12.00
2019-02-16T13:47:38.050Z,13.00
2019-02-16T13:50:29.454Z,10.33
2019-02-16T13:53:23.694Z,11.10
2019-02-16T13:56:30.633Z,11.40
2019-02-16T13:59:12.545Z,12.97
2019-02-16T14:02:01.023Z,12.00
2019-02-16T14:04:55.417Z,11.40
2019-02-16T14:07:49.476Z,12.27
2019-02-16T14:10:27.880Z,12.37
2019-02-16T14:13:14.878Z,11.57
2019-02-16T14:16:02.265Z,12.60
2019-02-16T14:18:31.513Z,11.57
2019-02-16T14:21:01.175Z,11.60
2019-02-16T14:23:30.835Z,11.40
2019-02-16T14:26:00.546Z,11.50
2019-02-16T14:28:30.910Z,12.30
2019-02-16T14:31:00.542Z,11.13
2019-02-16T14:33:30.306Z,11.00
2019-02-16T14:36:00.573Z,11.87
2019-02-16T14:38:54.848Z,12.00
2019-02-16T14:41:24.445Z,12.30
2019-02-16T14:43:53.686Z,11.20
2019-02-16T14:46:23.702Z,12.17
2019-02-16T14:48:53.372Z,11.10
2019-02-16T14:51:23.004Z,12.50
2019-02-16T14:53:52.536Z,11.17
2019-02-16T14:56:21.933Z,12.53
2019-02-16T14:58:51.494Z,12.97
2019-02-16T15:01:20.734Z,12.20
2019-02-16T15:03:49.993Z,12.03
2019-02-16T15:06:19.737Z,13.53
2019-02-16T15:08:50.472Z,12.80
2019-02-16T15:11:19.739Z,12.57
2019-02-16T15:13:49.367Z,13.70
2019-02-16T15:16:18.582Z,12.87
2019-02-16T15:18:48.319Z,11.57
2019-02-16T15:21:18.303Z,11.40
2019-02-16T15:23:47.866Z,11.40
2019-02-16T15:26:17.467Z,11.90
2019-02-16T15:28:47.490Z,17.80
2019-02-16T15:31:16.698Z,13.10
2019-02-16T15:33:46.367Z,13.53
2019-02-16T15:36:23.718Z,12.00
2019-02-16T15:38:47.552Z,16.33
2019-02-16T15:41:17.203Z,12.70
2019-02-16T15:43:47.221Z,12.70
2019-02-16T15:46:17.362Z,13.27
2019-02-16T15:48:46.711Z,12.10
2019-02-16T15:51:15.971Z,11.30
2019-02-16T15:53:46.670Z,12.53
2019-02-16T15:56:15.907Z,11.53
2019-02-16T15:58:45.684Z,12.80
2019-02-16T16:01:14.998Z,12.10
2019-02-16T16:03:44.657Z,11.50
2019-02-16T16:06:14.285Z,11.80
2019-02-16T16:08:51.151Z,12.50
2019-02-16T16:11:57.794Z,12.03
2019-02-16T16:14:51.567Z,12.17
2019-02-16T16:17:43.841Z,11.63
2019-02-16T16:20:30.755Z,10.87
2019-02-16T16:23:17.922Z,11.20
2019-02-16T16:25:56.880Z,12.33
2019-02-16T16:28:48.455Z,12.50
2019-02-16T16:31:26.274Z,12.20
2019-02-16T16:34:14.305Z,14.47
2019-02-16T16:37:09.818Z,12.93
2019-02-16T16:39:52.232Z,11.30
2019-02-16T16:42:58.868Z,12.00
2019-02-16T16:45:47.119Z,10.97
2019-02-16T16:48:38.165Z,12.50
2019-02-16T16:51:25.385Z,11.40
2019-02-16T16:54:01.132Z,11.40
2019-02-16T16:56:39.941Z,11.27
2019-02-16T16:59:28.265Z,10.33
2019-02-16T17:02:10.965Z,11.87
2019-02-16T17:05:02.336Z,11.83
2019-02-16T17:07:45.822Z,11.73
2019-02-16T17:10:22.478Z,12.17
2019-02-16T17:13:10.141Z,11.90
2019-02-16T17:15:54.300Z,10.63
2019-02-16T17:18:49.015Z,10.27
2019-02-16T17:24:20.868Z,10.70
2019-02-16T17:27:08.107Z,10.53
2019-02-16T17:29:59.049Z,11.50
2019-02-16T17:32:46.348Z,11.13
2019-02-16T17:35:26.905Z,10.30
2019-02-16T17:38:21.918Z,10.23
2019-02-16T17:41:13.137Z,10.80
2019-02-16T17:43:55.666Z,10.20
2019-02-16T17:46:37.908Z,10.37
2019-02-16T17:49:15.190Z,10.20
2019-02-16T17:51:59.218Z,9.90
2019-02-16T17:55:06.445Z,10.73
2019-02-16T17:57:40.827Z,11.50
2019-02-16T18:00:17.463Z,10.17
2019-02-16T18:02:58.090Z,9.57
2019-02-16T18:05:45.550Z,9.57
2019-02-16T18:08:46.858Z,11.17
2019-02-16T18:11:28.161Z,9.57
2019-02-16T18:14:13.228Z,10.17
2019-02-16T18:17:20.085Z,9.80
2019-02-16T18:19:54.517Z,10.27
2019-02-16T18:22:45.082Z,8.73
2019-02-16T18:25:26.877Z,10.80
2019-02-16T18:28:23.644Z,10.60
2019-02-16T18:31:11.576Z,11.10
2019-02-16T18:33:58.716Z,9.93
2019-02-16T18:36:38.601Z,12.40
2019-02-16T18:39:21.268Z,14.37
2019-02-16T18:42:10.205Z,12.63
2019-02-16T18:44:59.926Z,12.67
2019-02-16T18:47:43.517Z,16.00
2019-02-16T18:50:36.562Z,14.00
2019-02-16T18:53:24.715Z,13.53
2019-02-16T18:56:01.950Z,13.53
2019-02-16T18:58:57.032Z,13.50
2019-02-16T19:01:33.503Z,14.13
2019-02-16T19:04:37.367Z,13.03
2019-02-16T19:07:12.141Z,13.10
2019-02-16T19:10:06.537Z,13.80
2019-02-16T19:12:54.727Z,14.87
2019-02-16T19:15:48.794Z,14.30
2019-02-16T19:18:49.786Z,14.13
2019-02-16T19:21:36.565Z,15.40
2019-02-16T19:24:16.862Z,15.60
2019-02-16T19:26:59.039Z,15.80
2019-02-16T19:29:46.324Z,15.73
2019-02-16T19:32:41.517Z,15.90
2019-02-16T19:35:22.956Z,16.50
2019-02-16T19:38:25.325Z,16.07
2019-02-16T19:41:17.409Z,16.43
2019-02-16T19:44:05.472Z,15.03
2019-02-16T19:46:43.183Z,15.10
2019-02-16T19:49:31.520Z,16.53
2019-02-16T19:52:20.223Z,16.07
2019-02-16T19:55:15.677Z,16.97
2019-02-16T19:58:19.723Z,17.13
2019-02-16T20:00:59.768Z,17.97
2019-02-16T20:03:46.649Z,22.83
2019-02-16T20:06:53.559Z,20.27
2019-02-16T20:09:38.649Z,18.30
2019-02-16T20:12:36.222Z,18.07
2019-02-16T20:15:17.593Z,16.33
2019-02-16T20:18:15.511Z,18.43
2019-02-16T20:21:04.508Z,15.50
2019-02-16T20:23:53.475Z,17.23
2019-02-16T20:26:41.091Z,16.87
2019-02-16T20:29:27.918Z,16.73
2019-02-16T20:32:19.384Z,16.10
2019-02-16T20:35:07.316Z,16.30
2019-02-16T20:37:55.654Z,17.67
2019-02-16T20:40:44.005Z,17.57
2019-02-16T20:43:44.753Z,18.13
2019-02-16T20:46:33.040Z,19.43
2019-02-16T20:49:21.666Z,21.30
2019-02-16T20:52:10.373Z,19.97
2019-02-16T20:54:50.390Z,18.70
2019-02-16T20:57:27.591Z,18.33
2019-02-16T21:00:18.958Z,17.40
2019-02-16T21:03:07.770Z,15.87
2019-02-16T21:05:59.032Z,16.83
2019-02-16T21:08:48.133Z,16.30
2019-02-16T21:11:31.961Z,14.60
2019-02-16T21:14:20.878Z,14.67
2019-02-16T21:17:10.835Z,15.10
2019-02-16T21:20:02.555Z,15.17
2019-02-16T21:22:49.834Z,14.07
2019-02-16T21:25:46.890Z,15.10
2019-02-16T21:28:28.539Z,14.13
2019-02-16T21:31:36.239Z,12.90
2019-02-16T21:34:15.134Z,15.00
2019-02-16T21:37:21.478Z,13.30
2019-02-16T21:39:56.123Z,14.90
2019-02-16T21:42:31.662Z,14.57
2019-02-16T21:45:27.099Z,14.27
2019-02-16T21:48:21.192Z,15.30
2019-02-16T21:51:15.893Z,14.70
2019-02-16T21:53:52.813Z,13.60
2019-02-16T21:56:40.851Z,14.33
2019-02-16T21:59:30.046Z,12.90
2019-02-16T22:02:31.127Z,13.80
2019-02-16T22:05:17.933Z,14.67
2019-02-16T22:08:06.230Z,12.83
2019-02-16T22:10:50.127Z,13.47
2019-02-16T22:13:20.279Z,13.00
2019-02-16T22:15:49.894Z,12.67
2019-02-16T22:18:19.052Z,13.10
2019-02-16T22:20:48.300Z,14.27
2019-02-16T22:23:17.954Z,17.03
2019-02-16T22:25:47.505Z,18.43
2019-02-16T22:28:20.478Z,18.93
2019-02-16T22:30:48.260Z,15.10
2019-02-16T22:33:18.193Z,17.20
2019-02-16T22:35:47.798Z,16.30
2019-02-16T22:38:17.362Z,16.53
2019-02-16T22:40:46.637Z,15.77
2019-02-16T22:43:16.254Z,15.80
2019-02-16T22:45:46.225Z,15.37
2019-02-16T22:48:16.263Z,15.50
2019-02-16T22:50:46.207Z,15.03
2019-02-16T22:53:15.909Z,13.10
2019-02-16T22:55:45.531Z,13.13
2019-02-16T22:58:15.113Z,12.67
2019-02-16T23:00:47.471Z,12.30
2019-02-16T23:03:17.246Z,14.07
2019-02-16T23:05:47.331Z,14.13
2019-02-16T23:08:16.911Z,12.30
2019-02-16T23:10:46.187Z,12.77
2019-02-16T23:13:15.784Z,13.17
2019-02-16T23:15:45.810Z,13.30
2019-02-16T23:18:15.800Z,13.23
2019-02-16T23:20:47.645Z,12.27
2019-02-16T23:23:17.075Z,12.03
2019-02-16T23:25:46.833Z,12.93
2019-02-16T23:28:16.618Z,13.43
2019-02-16T23:30:45.973Z,13.80
2019-02-16T23:33:15.919Z,14.63
2019-02-16T23:35:45.528Z,13.17
2019-02-16T23:38:15.463Z,12.97
2019-02-16T23:40:45.283Z,12.80
2019-02-16T23:43:15.636Z,14.40
2019-02-16T23:45:45.391Z,12.57
2019-02-16T23:48:15.322Z,13.10
2019-02-16T23:50:44.941Z,15.27
2019-02-16T23:53:14.641Z,15.17
2019-02-16T23:55:44.006Z,17.43
2019-02-16T23:58:13.686Z,20.97
